createdAt,value
2023-03-29T00:02:16.133Z,16.47
2023-03-29T00:04:43.391Z,16.46
2023-03-29T00:07:10.604Z,16.45
2023-03-29T00:09:39.222Z,16.49
2023-03-29T00:12:07.056Z,16.47
2023-03-29T00:14:34.130Z,16.44
2023-03-29T00:17:01.287Z,16.42
2023-03-29T00:19:28.503Z,16.42
2023-03-29T00:21:55.582Z,16.40
2023-03-29T00:24:22.783Z,16.38
2023-03-29T00:26:51.763Z,16.35
2023-03-29T00:29:18.881Z,16.32
2023-03-29T00:31:46.187Z,16.24
2023-03-29T00:34:13.718Z,16.32
2023-03-29T00:36:40.801Z,16.29
2023-03-29T00:39:08.080Z,16.30
2023-03-29T00:41:35.404Z,16.04
2023-03-29T00:44:05.123Z,16.25
2023-03-29T00:46:32.416Z,15.87
2023-03-29T00:49:06.465Z,16.03
2023-03-29T00:51:41.083Z,16.22
2023-03-29T00:54:14.019Z,16.30
2023-03-29T00:56:46.718Z,15.95
2023-03-29T00:59:20.860Z,16.27
2023-03-29T01:01:53.643Z,16.12
2023-03-29T01:04:27.582Z,16.10
2023-03-29T01:07:00.945Z,15.90
2023-03-29T01:09:36.941Z,16.09
2023-03-29T01:12:13.764Z,16.24
2023-03-29T01:14:48.737Z,16.23
2023-03-29T01:17:15.990Z,16.01
2023-03-29T01:19:51.407Z,15.74
2023-03-29T01:22:30.700Z,16.20
2023-03-29T01:25:12.876Z,16.32
2023-03-29T01:27:53.078Z,16.37
2023-03-29T01:30:28.929Z,16.38
2023-03-29T01:33:02.639Z,16.36
2023-03-29T01:35:38.662Z,16.23
2023-03-29T01:38:12.435Z,16.31
2023-03-29T01:40:40.019Z,16.31
2023-03-29T01:43:21.999Z,16.31
2023-03-29T01:46:00.515Z,16.36
2023-03-29T01:48:35.036Z,16.38
2023-03-29T01:51:09.701Z,16.42
2023-03-29T01:53:43.259Z,16.42
2023-03-29T01:56:14.448Z,16.45
2023-03-29T01:58:49.249Z,17.18
2023-03-29T02:01:22.842Z,17.26
2023-03-29T02:03:55.231Z,17.27
2023-03-29T02:06:28.072Z,17.36
2023-03-29T02:08:56.109Z,17.40
2023-03-29T02:11:26.309Z,17.33
2023-03-29T02:13:55.073Z,17.46
2023-03-29T02:16:23.279Z,17.69
2023-03-29T02:18:54.228Z,17.79
2023-03-29T02:21:26.534Z,18.01
2023-03-29T02:23:59.813Z,17.58
2023-03-29T02:26:27.390Z,18.17
2023-03-29T02:28:56.196Z,18.47
2023-03-29T02:31:29.255Z,18.45
2023-03-29T02:34:02.730Z,18.23
2023-03-29T02:36:36.351Z,18.38
2023-03-29T02:39:04.894Z,18.46
2023-03-29T02:41:34.388Z,18.64
2023-03-29T02:44:07.485Z,18.57
2023-03-29T02:46:35.799Z,18.58
2023-03-29T02:49:02.964Z,18.62
2023-03-29T02:51:34.344Z,18.57
2023-03-29T02:54:06.749Z,18.53
2023-03-29T02:56:42.851Z,18.42
2023-03-29T02:59:11.580Z,18.44
2023-03-29T03:01:39.038Z,18.60
2023-03-29T03:04:06.233Z,18.63
2023-03-29T03:06:33.540Z,18.42
2023-03-29T03:09:00.760Z,18.45
2023-03-29T03:11:27.905Z,18.54
2023-03-29T03:13:55.282Z,18.45
2023-03-29T03:16:24.062Z,18.33
2023-03-29T03:18:52.418Z,18.33
2023-03-29T03:21:19.677Z,18.35
2023-03-29T03:23:47.027Z,18.22
2023-03-29T03:26:15.568Z,18.51
2023-03-29T03:28:42.685Z,18.41
2023-03-29T03:31:09.945Z,18.60
2023-03-29T03:33:38.627Z,18.60
2023-03-29T03:36:06.936Z,18.57
2023-03-29T03:38:35.035Z,18.51
2023-03-29T03:41:02.761Z,18.49
2023-03-29T03:43:30.843Z,18.28
2023-03-29T03:45:58.296Z,18.00
2023-03-29T03:48:26.408Z,17.95
2023-03-29T03:50:56.632Z,18.17
2023-03-29T03:53:25.147Z,17.84
2023-03-29T03:55:54.415Z,18.32
2023-03-29T03:58:22.960Z,18.46
2023-03-29T04:00:51.460Z,18.33
2023-03-29T04:03:19.327Z,18.14
2023-03-29T04:05:47.642Z,18.11
2023-03-29T04:08:16.228Z,18.13
2023-03-29T04:10:51.445Z,17.86
2023-03-29T04:13:18.818Z,17.66
2023-03-29T04:15:45.920Z,17.29
2023-03-29T04:18:13.241Z,17.51
2023-03-29T04:20:40.482Z,17.53
2023-03-29T04:23:07.706Z,17.61
2023-03-29T04:25:36.444Z,16.60
2023-03-29T04:28:03.775Z,16.40
2023-03-29T04:30:31.142Z,16.57
2023-03-29T04:32:58.467Z,16.81
2023-03-29T04:35:26.157Z,17.23
2023-03-29T04:37:53.745Z,17.04
2023-03-29T04:40:21.278Z,17.37
2023-03-29T04:42:50.159Z,17.24
2023-03-29T04:45:17.540Z,16.98
2023-03-29T04:47:44.927Z,17.27
2023-03-29T04:50:13.317Z,17.32
2023-03-29T04:52:40.417Z,17.18
2023-03-29T04:55:08.797Z,17.47
2023-03-29T04:57:35.939Z,17.52
2023-03-29T05:00:06.259Z,17.70
2023-03-29T05:02:33.473Z,17.77
2023-03-29T05:05:00.720Z,17.79
2023-03-29T05:07:27.920Z,17.91
2023-03-29T05:09:55.038Z,17.90
2023-03-29T05:12:22.266Z,17.93
2023-03-29T05:14:49.302Z,18.02
2023-03-29T05:17:17.901Z,18.15
2023-03-29T05:19:45.125Z,18.22
2023-03-29T05:22:12.198Z,18.16
2023-03-29T05:24:39.319Z,18.28
2023-03-29T05:27:06.577Z,18.30
2023-03-29T05:29:33.754Z,18.28
2023-03-29T05:32:01.017Z,18.26
2023-03-29T05:34:30.190Z,18.35
2023-03-29T05:36:57.337Z,18.49
2023-03-29T05:39:24.538Z,18.45
2023-03-29T05:41:51.642Z,18.45
2023-03-29T05:44:19.100Z,18.45
2023-03-29T05:46:46.239Z,18.49
2023-03-29T05:49:13.608Z,18.54
2023-03-29T05:51:42.295Z,18.50
2023-03-29T05:54:09.707Z,18.52
2023-03-29T05:56:37.134Z,18.53
2023-03-29T05:59:04.447Z,18.55
2023-03-29T06:01:31.708Z,18.56
2023-03-29T06:03:59.052Z,18.53
2023-03-29T06:06:26.352Z,18.51
2023-03-29T06:08:55.147Z,18.52
2023-03-29T06:11:22.385Z,18.54
2023-03-29T06:13:49.447Z,18.62
2023-03-29T06:16:16.699Z,18.62
2023-03-29T06:18:44.008Z,18.68
2023-03-29T06:21:11.194Z,18.62
2023-03-29T06:23:38.357Z,18.66
2023-03-29T06:26:07.639Z,18.67
2023-03-29T06:28:34.716Z,18.66
2023-03-29T06:33:29.959Z,18.64
2023-03-29T06:35:57.282Z,18.62
2023-03-29T06:38:24.984Z,18.72
2023-03-29T06:40:52.763Z,18.77
2023-03-29T06:43:21.439Z,18.79
2023-03-29T06:45:48.889Z,18.64
2023-03-29T06:48:16.102Z,18.70
2023-03-29T06:50:43.271Z,18.77
2023-03-29T06:53:10.606Z,18.84
2023-03-29T06:55:37.854Z,18.83
2023-03-29T06:58:05.163Z,18.78
2023-03-29T07:00:33.902Z,18.89
2023-03-29T07:03:05.976Z,19.22
2023-03-29T07:05:33.840Z,19.21
2023-03-29T07:08:01.080Z,19.64
2023-03-29T07:10:31.121Z,19.85
2023-03-29T07:12:59.583Z,19.63
2023-03-29T07:15:27.739Z,20.05
2023-03-29T07:17:56.369Z,20.06
2023-03-29T07:20:24.165Z,19.90
2023-03-29T07:22:52.321Z,20.01
2023-03-29T07:25:21.619Z,19.72
2023-03-29T07:27:49.201Z,19.62
2023-03-29T07:30:18.995Z,19.42
2023-03-29T07:32:46.893Z,19.45
2023-03-29T07:35:17.004Z,18.71
2023-03-29T07:37:45.681Z,19.16
2023-03-29T07:40:15.780Z,18.67
2023-03-29T07:42:44.542Z,18.93
2023-03-29T07:45:13.483Z,19.17
2023-03-29T07:47:41.311Z,19.15
2023-03-29T07:50:09.996Z,18.83
2023-03-29T07:52:38.781Z,19.18
2023-03-29T07:55:07.815Z,18.71
2023-03-29T07:57:35.942Z,19.56
2023-03-29T08:00:05.702Z,19.76
2023-03-29T08:02:32.952Z,19.79
2023-03-29T08:05:00.373Z,19.76
2023-03-29T08:07:27.880Z,19.82
2023-03-29T08:09:56.557Z,19.47
2023-03-29T08:12:25.033Z,19.46
2023-03-29T08:14:52.403Z,19.41
2023-03-29T08:17:19.533Z,19.53
2023-03-29T08:19:51.059Z,19.57
2023-03-29T08:22:19.667Z,19.62
2023-03-29T08:24:47.116Z,19.55
2023-03-29T08:27:15.921Z,19.46
2023-03-29T08:29:43.114Z,19.27
2023-03-29T08:32:10.559Z,19.28
2023-03-29T08:34:37.932Z,19.35
2023-03-29T08:37:05.179Z,19.32
2023-03-29T08:39:32.408Z,19.46
2023-03-29T08:42:20.853Z,19.40
2023-03-29T08:45:02.200Z,19.97
2023-03-29T08:47:43.385Z,20.31
2023-03-29T08:50:14.032Z,20.37
2023-03-29T08:52:47.283Z,20.53
2023-03-29T08:55:26.944Z,20.58
2023-03-29T08:57:59.537Z,20.75
2023-03-29T09:00:37.481Z,20.78
2023-03-29T09:03:15.065Z,20.48
2023-03-29T09:05:47.859Z,20.28
2023-03-29T09:08:17.940Z,20.29
2023-03-29T09:10:48.738Z,20.47
2023-03-29T09:13:34.996Z,20.26
2023-03-29T09:16:11.927Z,20.00
2023-03-29T09:18:54.054Z,20.21
2023-03-29T09:21:31.137Z,19.57
2023-03-29T09:24:14.533Z,19.96
2023-03-29T09:26:51.409Z,20.11
2023-03-29T09:29:50.132Z,20.37
2023-03-29T09:32:21.834Z,20.43
2023-03-29T09:35:01.107Z,20.44
2023-03-29T09:37:34.707Z,20.60
2023-03-29T09:40:11.150Z,20.89
2023-03-29T09:42:40.399Z,20.37
2023-03-29T09:45:10.800Z,20.57
2023-03-29T09:47:44.411Z,20.02
2023-03-29T09:50:30.032Z,19.82
2023-03-29T09:52:58.686Z,18.76
2023-03-29T09:55:30.080Z,19.08
2023-03-29T09:58:02.276Z,19.57
2023-03-29T10:00:31.029Z,20.02
2023-03-29T10:02:58.617Z,20.03
2023-03-29T10:05:30.094Z,19.62
2023-03-29T10:08:01.198Z,19.89
2023-03-29T10:10:31.095Z,19.96
2023-03-29T10:13:04.170Z,20.08
2023-03-29T10:15:33.899Z,20.02
2023-03-29T10:18:05.681Z,20.10
2023-03-29T10:20:37.445Z,20.33
2023-03-29T10:23:07.732Z,20.25
2023-03-29T10:25:42.104Z,19.92
2023-03-29T10:28:16.116Z,20.19
2023-03-29T10:30:53.326Z,20.34
2023-03-29T10:33:25.070Z,20.38
2023-03-29T10:35:55.284Z,20.09
2023-03-29T10:38:27.087Z,20.29
2023-03-29T10:41:02.940Z,20.18
2023-03-29T10:43:37.587Z,20.02
2023-03-29T10:46:12.432Z,19.97
2023-03-29T10:48:46.557Z,19.87
2023-03-29T10:51:15.822Z,19.95
2023-03-29T10:53:43.707Z,19.79
2023-03-29T10:56:34.274Z,18.74
2023-03-29T10:59:23.805Z,19.23
2023-03-29T11:02:27.317Z,19.32
2023-03-29T11:05:16.229Z,19.44
2023-03-29T11:08:05.292Z,19.38
2023-03-29T11:10:44.624Z,19.23
2023-03-29T11:13:23.612Z,19.34
2023-03-29T11:16:09.869Z,19.43
2023-03-29T11:18:55.987Z,19.47
2023-03-29T11:21:39.596Z,19.36
2023-03-29T11:24:36.874Z,19.13
2023-03-29T11:27:21.644Z,19.16
2023-03-29T11:30:06.779Z,19.18
2023-03-29T11:32:46.226Z,19.15
2023-03-29T11:35:39.276Z,18.93
2023-03-29T11:38:19.215Z,19.33
2023-03-29T11:40:58.567Z,19.06
2023-03-29T11:43:34.396Z,19.13
2023-03-29T11:46:11.774Z,19.07
2023-03-29T11:48:48.289Z,19.26
2023-03-29T11:51:23.620Z,19.39
2023-03-29T11:54:01.865Z,19.34
2023-03-29T11:56:37.198Z,18.93
2023-03-29T11:59:14.643Z,19.59
2023-03-29T12:01:50.696Z,19.31
2023-03-29T12:04:30.759Z,19.42
2023-03-29T12:07:11.711Z,19.37
2023-03-29T12:09:48.913Z,19.54
2023-03-29T12:12:25.983Z,19.57
2023-03-29T12:15:05.195Z,19.87
2023-03-29T12:17:39.205Z,19.18
2023-03-29T12:20:18.532Z,18.91
2023-03-29T12:22:47.871Z,19.22
2023-03-29T12:25:23.418Z,19.32
2023-03-29T12:28:09.052Z,19.67
2023-03-29T12:30:59.099Z,19.92
2023-03-29T12:33:55.313Z,20.12
2023-03-29T12:36:53.434Z,20.18
2023-03-29T12:39:26.857Z,20.47
2023-03-29T12:42:07.837Z,20.59
2023-03-29T12:44:36.127Z,20.67
2023-03-29T12:47:03.380Z,20.69
2023-03-29T12:49:36.066Z,20.85
2023-03-29T12:52:17.552Z,20.20
2023-03-29T12:54:54.610Z,20.33
2023-03-29T12:57:29.069Z,20.81
2023-03-29T12:59:56.639Z,21.06
2023-03-29T13:02:35.289Z,21.11
2023-03-29T13:05:03.269Z,21.04
2023-03-29T13:07:43.556Z,21.32
2023-03-29T13:10:34.496Z,21.41
2023-03-29T13:13:17.032Z,21.44
2023-03-29T13:15:45.603Z,21.59
2023-03-29T13:18:39.977Z,21.39
2023-03-29T13:21:20.996Z,21.35
2023-03-29T13:23:59.615Z,21.51
2023-03-29T13:26:52.940Z,21.76
2023-03-29T13:29:50.016Z,21.42
2023-03-29T13:32:30.489Z,22.12
2023-03-29T13:35:11.197Z,22.27
2023-03-29T13:37:51.736Z,22.09
2023-03-29T13:40:32.368Z,22.36
2023-03-29T13:43:02.011Z,22.33
2023-03-29T13:45:32.964Z,22.48
2023-03-29T13:48:06.248Z,22.11
2023-03-29T13:50:37.847Z,22.29
2023-03-29T13:53:15.976Z,22.19
2023-03-29T13:55:50.680Z,22.23
2023-03-29T13:58:33.175Z,22.21
2023-03-29T14:01:11.838Z,22.34
2023-03-29T14:03:44.876Z,22.39
2023-03-29T14:06:17.640Z,22.29
2023-03-29T14:08:45.459Z,22.39
2023-03-29T14:11:23.418Z,22.42
2023-03-29T14:13:54.089Z,22.32
2023-03-29T14:16:27.970Z,22.37
2023-03-29T14:18:59.634Z,22.32
2023-03-29T14:21:27.303Z,22.16
2023-03-29T14:23:57.517Z,22.15
2023-03-29T14:26:30.275Z,22.11
2023-03-29T14:28:59.694Z,22.04
2023-03-29T14:31:32.265Z,21.99
2023-03-29T14:34:02.222Z,22.18
2023-03-29T14:36:32.138Z,22.12
2023-03-29T14:39:05.211Z,22.02
2023-03-29T14:41:35.402Z,21.20
2023-03-29T14:44:04.657Z,21.45
2023-03-29T14:46:35.307Z,21.86
2023-03-29T14:49:11.662Z,22.10
2023-03-29T14:51:40.547Z,22.20
2023-03-29T14:54:11.475Z,22.18
2023-03-29T14:56:39.038Z,21.91
2023-03-29T14:59:25.618Z,22.13
2023-03-29T15:01:54.864Z,22.08
2023-03-29T15:04:22.158Z,22.06
2023-03-29T15:06:49.919Z,22.21
2023-03-29T15:09:23.294Z,22.28
2023-03-29T15:11:55.616Z,22.32
2023-03-29T15:14:26.452Z,22.28
2023-03-29T15:17:02.857Z,22.47
2023-03-29T15:19:30.796Z,22.44
2023-03-29T15:22:03.975Z,22.45
2023-03-29T15:24:33.910Z,22.44
2023-03-29T15:27:04.122Z,22.49
2023-03-29T15:29:39.953Z,22.47
2023-03-29T15:32:10.285Z,22.37
2023-03-29T15:34:37.677Z,22.34
2023-03-29T15:37:05.417Z,22.36
2023-03-29T15:39:34.121Z,22.37
2023-03-29T15:42:01.594Z,22.21
2023-03-29T15:44:33.421Z,22.39
2023-03-29T15:47:00.880Z,22.41
2023-03-29T15:49:29.536Z,22.44
2023-03-29T15:51:57.799Z,22.44
2023-03-29T15:54:25.538Z,22.42
2023-03-29T15:56:56.752Z,22.33
2023-03-29T15:59:24.629Z,22.37
2023-03-29T16:01:52.215Z,22.36
2023-03-29T16:04:22.283Z,22.33
2023-03-29T16:06:53.657Z,22.33
2023-03-29T16:09:22.311Z,22.34
2023-03-29T16:11:50.263Z,22.37
2023-03-29T16:14:21.814Z,22.32
2023-03-29T16:16:49.561Z,22.37
2023-03-29T16:19:16.977Z,22.39
2023-03-29T16:21:45.396Z,22.44
2023-03-29T16:24:17.958Z,22.47
2023-03-29T16:26:52.806Z,22.46
2023-03-29T16:29:22.793Z,22.47
2023-03-29T16:31:50.948Z,22.52
2023-03-29T16:34:18.856Z,22.52
2023-03-29T16:36:47.282Z,22.51
2023-03-29T16:39:16.272Z,22.45
2023-03-29T16:41:43.591Z,22.42
2023-03-29T16:44:16.118Z,22.37
2023-03-29T16:46:43.553Z,22.36
2023-03-29T16:49:14.151Z,22.21
2023-03-29T16:51:41.621Z,22.23
2023-03-29T16:54:10.893Z,22.19
2023-03-29T16:56:40.090Z,22.24
2023-03-29T16:59:07.250Z,22.17
2023-03-29T17:01:34.492Z,22.19
2023-03-29T17:04:02.127Z,22.23
2023-03-29T17:06:29.385Z,22.27
2023-03-29T17:08:56.965Z,22.21
2023-03-29T17:11:24.447Z,21.80
2023-03-29T17:13:53.186Z,22.10
2023-03-29T17:16:20.788Z,22.20
2023-03-29T17:18:48.344Z,22.24
2023-03-29T17:21:16.085Z,22.29
2023-03-29T17:23:43.668Z,22.30
2023-03-29T17:26:11.401Z,22.32
2023-03-29T17:28:39.096Z,22.31
2023-03-29T17:31:08.122Z,22.27
2023-03-29T17:33:36.332Z,22.26
2023-03-29T17:36:05.854Z,22.31
2023-03-29T17:38:34.225Z,22.33
2023-03-29T17:41:02.509Z,22.35
2023-03-29T17:43:31.966Z,22.30
2023-03-29T17:45:59.538Z,22.26
2023-03-29T17:50:58.030Z,22.20
2023-03-29T17:53:25.428Z,22.20
2023-03-29T17:55:53.004Z,22.18
2023-03-29T17:58:20.433Z,22.15
2023-03-29T18:00:47.908Z,22.13
2023-03-29T18:03:15.197Z,22.14
2023-03-29T18:05:44.364Z,22.18
2023-03-29T18:08:12.409Z,22.17
2023-03-29T18:10:39.695Z,22.12
2023-03-29T18:13:06.787Z,22.10
2023-03-29T18:15:34.006Z,22.03
2023-03-29T18:18:01.372Z,21.96
2023-03-29T18:20:28.661Z,21.95
2023-03-29T18:22:58.788Z,21.94
2023-03-29T18:25:26.272Z,21.89
2023-03-29T18:27:53.507Z,21.86
2023-03-29T18:30:21.621Z,21.83
2023-03-29T18:32:49.024Z,22.09
2023-03-29T18:35:16.573Z,22.32
2023-03-29T18:37:43.768Z,22.10
2023-03-29T18:40:13.371Z,21.75
2023-03-29T18:42:41.511Z,21.78
2023-03-29T18:45:11.192Z,21.70
2023-03-29T18:47:39.704Z,21.63
2023-03-29T18:50:09.892Z,21.56
2023-03-29T18:52:37.375Z,21.52
2023-03-29T18:55:05.904Z,21.58
2023-03-29T18:57:34.708Z,21.57
2023-03-29T19:00:02.410Z,21.63
2023-03-29T19:02:29.685Z,21.62
2023-03-29T19:04:57.113Z,21.59
2023-03-29T19:07:24.317Z,21.58
2023-03-29T19:09:51.606Z,21.60
2023-03-29T19:12:19.880Z,21.54
2023-03-29T19:14:51.729Z,21.52
2023-03-29T19:17:19.135Z,21.46
2023-03-29T19:19:47.234Z,21.29
2023-03-29T19:22:15.273Z,21.14
2023-03-29T19:24:42.433Z,21.08
2023-03-29T19:27:12.568Z,21.13
2023-03-29T19:29:44.494Z,21.05
2023-03-29T19:32:14.492Z,21.08
2023-03-29T19:34:50.635Z,21.20
2023-03-29T19:37:26.913Z,21.25
2023-03-29T19:40:03.930Z,21.30
2023-03-29T19:42:31.649Z,21.30
2023-03-29T19:44:59.153Z,21.35
2023-03-29T19:47:28.597Z,21.34
2023-03-29T19:49:57.428Z,21.40
2023-03-29T19:52:24.654Z,21.35
2023-03-29T19:54:52.146Z,21.35
2023-03-29T19:57:19.617Z,21.29
2023-03-29T19:59:47.507Z,21.28
2023-03-29T20:02:15.610Z,21.31
2023-03-29T20:04:44.613Z,21.37
2023-03-29T20:07:12.086Z,21.43
2023-03-29T20:09:39.344Z,21.48
2023-03-29T20:12:12.345Z,22.61
2023-03-29T20:14:40.193Z,23.02
2023-03-29T20:17:07.826Z,23.21
2023-03-29T20:19:36.561Z,23.49
2023-03-29T20:22:06.048Z,23.73
2023-03-29T20:24:33.948Z,23.92
2023-03-29T20:27:01.362Z,24.05
2023-03-29T20:29:28.826Z,23.45
2023-03-29T20:31:56.803Z,23.15
2023-03-29T20:34:24.219Z,22.81
2023-03-29T20:36:52.470Z,22.58
2023-03-29T20:39:23.003Z,22.27
2023-03-29T20:41:52.700Z,22.13
2023-03-29T20:44:20.386Z,22.09
2023-03-29T20:46:49.418Z,22.11
2023-03-29T20:49:19.531Z,21.99
2023-03-29T20:51:47.187Z,21.86
2023-03-29T20:54:14.285Z,21.78
2023-03-29T20:56:43.302Z,21.69
2023-03-29T20:59:11.887Z,21.60
2023-03-29T21:01:39.097Z,21.51
2023-03-29T21:04:07.388Z,21.43
2023-03-29T21:06:34.950Z,21.45
2023-03-29T21:09:02.146Z,21.39
2023-03-29T21:11:29.508Z,21.37
2023-03-29T21:13:58.367Z,21.38
2023-03-29T21:16:25.733Z,21.38
2023-03-29T21:18:53.668Z,21.36
2023-03-29T21:21:20.857Z,21.36
2023-03-29T21:23:48.545Z,21.30
2023-03-29T21:26:15.728Z,21.25
2023-03-29T21:28:44.806Z,21.20
2023-03-29T21:31:13.683Z,21.11
2023-03-29T21:33:40.928Z,21.04
2023-03-29T21:36:08.728Z,21.05
2023-03-29T21:38:36.014Z,21.04
2023-03-29T21:41:03.612Z,21.07
2023-03-29T21:43:31.083Z,21.10
2023-03-29T21:45:58.326Z,21.13
2023-03-29T21:48:27.265Z,21.15
2023-03-29T21:50:54.425Z,21.16
2023-03-29T21:53:21.628Z,21.22
2023-03-29T21:55:49.387Z,21.23
2023-03-29T21:58:16.891Z,21.25
2023-03-29T22:00:44.640Z,21.27
2023-03-29T22:03:12.081Z,21.26
2023-03-29T22:05:41.088Z,21.23
2023-03-29T22:08:08.289Z,21.19
2023-03-29T22:10:37.805Z,21.15
2023-03-29T22:13:05.290Z,21.09
2023-03-29T22:15:32.652Z,21.04
2023-03-29T22:18:00.008Z,21.10
2023-03-29T22:20:27.349Z,21.07
2023-03-29T22:22:56.049Z,21.12
2023-03-29T22:25:23.192Z,21.09
2023-03-29T22:27:50.589Z,21.10
2023-03-29T22:30:18.065Z,20.99
2023-03-29T22:32:45.563Z,20.99
2023-03-29T22:35:12.795Z,20.99
2023-03-29T22:37:44.015Z,20.94
2023-03-29T22:40:13.920Z,20.98
2023-03-29T22:42:41.198Z,21.00
2023-03-29T22:45:09.514Z,20.99
2023-03-29T22:47:36.658Z,20.99
2023-03-29T22:50:04.643Z,21.01
2023-03-29T22:52:31.771Z,20.79
2023-03-29T22:54:59.129Z,20.73
2023-03-29T22:57:28.000Z,20.77
2023-03-29T22:59:55.269Z,20.83
2023-03-29T23:02:22.751Z,20.83
2023-03-29T23:04:50.009Z,20.94
2023-03-29T23:07:17.373Z,21.01
2023-03-29T23:09:44.407Z,20.94
2023-03-29T23:12:11.626Z,21.08
2023-03-29T23:14:40.373Z,21.06
2023-03-29T23:17:07.527Z,21.07
2023-03-29T23:19:34.765Z,21.01
2023-03-29T23:22:01.986Z,21.07
2023-03-29T23:24:29.386Z,20.87
2023-03-29T23:26:56.789Z,20.87
2023-03-29T23:29:23.905Z,20.76
2023-03-29T23:31:52.732Z,20.73
2023-03-29T23:34:19.945Z,20.75
2023-03-29T23:36:47.116Z,20.45
2023-03-29T23:39:14.564Z,20.02
2023-03-29T23:41:41.825Z,20.23
2023-03-29T23:44:08.925Z,19.71
2023-03-29T23:46:36.195Z,19.34
2023-03-29T23:49:05.168Z,19.51
2023-03-29T23:51:32.289Z,19.31
2023-03-29T23:53:59.406Z,19.17
2023-03-29T23:56:27.006Z,19.41
2023-03-29T23:58:54.730Z,19.13
